YWLM/NTL METAR and TAF weather

Enter ICAO airport designator
Station Type Date Time Source
YWLM METAR 2021/09/24 00:30 UTC NOAA

YWLM 240030Z 29018KT CAVOK 23/09 Q1014


Station Type Date Time Source
YWLM Decoded METAR 2021/09/24 00:30 UTC NOAA

Station name not available
Sep 23, 2021 - 08:30 PM EDT / 2021.09.24 0030 UTC
Wind: from the WNW (290 degrees) at 21 MPH (18 KT):0
Visibility: greater than 7 mile(s):0
Temperature: 73 F (23 C)
Dew Point: 48 F (9 C)
Relative Humidity: 40%
Pressure (altimeter): 29.94 in. Hg (1014 hPa)
ob: YWLM 240030Z 29018KT CAVOK 23/09 Q1014
cycle: 0

Station Type Date Time Source
YWLM TAF 2021/09/23 23:36 UTC NOAA

TAF TAF YWLM 232205Z 2323/2418 30015G25KT CAVOK
FM240800 30014KT CAVOK

Example: see airport list